sensor_id;sensor_type;location;lat;lon;timestamp;P1;durP1;ratioP1;P2;durP2;ratioP2
34900;SDS011;21112;51.976;5.660;2023-05-14T00:00:34;8.35;;;4.38;;
34900;SDS011;21112;51.976;5.660;2023-05-14T00:03:01;12.38;;;4.05;;
34900;SDS011;21112;51.976;5.660;2023-05-14T00:05:27;10.50;;;4.20;;
34900;SDS011;21112;51.976;5.660;2023-05-14T00:07:54;9.10;;;4.20;;
34900;SDS011;21112;51.976;5.660;2023-05-14T00:10:22;10.52;;;4.20;;
34900;SDS011;21112;51.976;5.660;2023-05-14T00:12:49;8.73;;;4.60;;
34900;SDS011;21112;51.976;5.660;2023-05-14T00:15:16;7.35;;;4.40;;
34900;SDS011;21112;51.976;5.660;2023-05-14T00:17:44;9.55;;;4.03;;
34900;SDS011;21112;51.976;5.660;2023-05-14T00:20:11;7.65;;;4.28;;
34900;SDS011;21112;51.976;5.660;2023-05-14T00:22:37;8.25;;;4.57;;
34900;SDS011;21112;51.976;5.660;2023-05-14T00:25:05;6.90;;;4.07;;
34900;SDS011;21112;51.976;5.660;2023-05-14T00:27:33;9.55;;;4.72;;
34900;SDS011;21112;51.976;5.660;2023-05-14T00:30:00;9.77;;;4.95;;
34900;SDS011;21112;51.976;5.660;2023-05-14T00:32:26;9.65;;;4.35;;
34900;SDS011;21112;51.976;5.660;2023-05-14T00:34:52;11.95;;;4.32;;
34900;SDS011;21112;51.976;5.660;2023-05-14T00:37:21;7.57;;;4.55;;
34900;SDS011;21112;51.976;5.660;2023-05-14T00:39:47;8.15;;;4.68;;
34900;SDS011;21112;51.976;5.660;2023-05-14T00:42:14;9.73;;;4.72;;
34900;SDS011;21112;51.976;5.660;2023-05-14T00:44:41;10.20;;;5.22;;
34900;SDS011;21112;51.976;5.660;2023-05-14T00:47:08;9.07;;;5.13;;
34900;SDS011;21112;51.976;5.660;2023-05-14T00:49:34;9.57;;;5.07;;
34900;SDS011;21112;51.976;5.660;2023-05-14T00:52:03;9.30;;;4.93;;
34900;SDS011;21112;51.976;5.660;2023-05-14T00:54:30;10.10;;;4.57;;
34900;SDS011;21112;51.976;5.660;2023-05-14T00:56:57;9.43;;;5.20;;
34900;SDS011;21112;51.976;5.660;2023-05-14T00:59:23;10.45;;;5.18;;
34900;SDS011;21112;51.976;5.660;2023-05-14T01:01:52;9.43;;;4.70;;
34900;SDS011;21112;51.976;5.660;2023-05-14T01:04:21;9.27;;;5.00;;
34900;SDS011;21112;51.976;5.660;2023-05-14T01:06:50;8.15;;;4.65;;
34900;SDS011;21112;51.976;5.660;2023-05-14T01:09:21;11.07;;;5.65;;
34900;SDS011;21112;51.976;5.660;2023-05-14T01:11:51;9.77;;;5.32;;
34900;SDS011;21112;51.976;5.660;2023-05-14T01:14:22;10.23;;;4.88;;
34900;SDS011;21112;51.976;5.660;2023-05-14T01:16:51;9.02;;;5.10;;
34900;SDS011;21112;51.976;5.660;2023-05-14T01:19:25;11.60;;;4.95;;
34900;SDS011;21112;51.976;5.660;2023-05-14T01:21:54;10.02;;;5.22;;
34900;SDS011;21112;51.976;5.660;2023-05-14T01:24:20;8.45;;;5.00;;
34900;SDS011;21112;51.976;5.660;2023-05-14T01:26:47;9.02;;;5.10;;
34900;SDS011;21112;51.976;5.660;2023-05-14T01:29:15;10.13;;;5.30;;
34900;SDS011;21112;51.976;5.660;2023-05-14T01:31:43;9.10;;;4.95;;
34900;SDS011;21112;51.976;5.660;2023-05-14T01:34:11;10.82;;;5.15;;
34900;SDS011;21112;51.976;5.660;2023-05-14T01:36:38;9.75;;;4.88;;
34900;SDS011;21112;51.976;5.660;2023-05-14T01:39:06;9.43;;;5.03;;
34900;SDS011;21112;51.976;5.660;2023-05-14T01:43:59;9.82;;;4.93;;
34900;SDS011;21112;51.976;5.660;2023-05-14T01:46:29;10.45;;;5.30;;
34900;SDS011;21112;51.976;5.660;2023-05-14T01:48:56;11.85;;;5.65;;
34900;SDS011;21112;51.976;5.660;2023-05-14T01:51:22;12.23;;;4.88;;
34900;SDS011;21112;51.976;5.660;2023-05-14T01:53:48;10.93;;;5.25;;
34900;SDS011;21112;51.976;5.660;2023-05-14T01:56:16;9.68;;;5.20;;
34900;SDS011;21112;51.976;5.660;2023-05-14T01:58:43;9.85;;;5.20;;
34900;SDS011;21112;51.976;5.660;2023-05-14T02:01:09;9.32;;;5.50;;
34900;SDS011;21112;51.976;5.660;2023-05-14T02:03:36;10.70;;;5.40;;
34900;SDS011;21112;51.976;5.660;2023-05-14T02:06:02;10.93;;;4.88;;
34900;SDS011;21112;51.976;5.660;2023-05-14T02:08:29;11.88;;;5.30;;
34900;SDS011;21112;51.976;5.660;2023-05-14T02:10:56;9.68;;;5.30;;
34900;SDS011;21112;51.976;5.660;2023-05-14T02:13:24;11.40;;;5.72;;
34900;SDS011;21112;51.976;5.660;2023-05-14T02:15:51;9.15;;;5.07;;
34900;SDS011;21112;51.976;5.660;2023-05-14T02:18:17;11.50;;;5.63;;
34900;SDS011;21112;51.976;5.660;2023-05-14T02:20:45;9.40;;;5.32;;
34900;SDS011;21112;51.976;5.660;2023-05-14T02:23:11;10.95;;;5.35;;
34900;SDS011;21112;51.976;5.660;2023-05-14T02:25:38;12.15;;;5.35;;
34900;SDS011;21112;51.976;5.660;2023-05-14T02:28:04;11.80;;;5.22;;
34900;SDS011;21112;51.976;5.660;2023-05-14T02:33:07;8.93;;;5.25;;
34900;SDS011;21112;51.976;5.660;2023-05-14T02:35:33;10.15;;;5.43;;
34900;SDS011;21112;51.976;5.660;2023-05-14T02:38:01;11.65;;;6.20;;
34900;SDS011;21112;51.976;5.660;2023-05-14T02:40:28;9.10;;;5.03;;
34900;SDS011;21112;51.976;5.660;2023-05-14T02:42:54;10.73;;;6.03;;
34900;SDS011;21112;51.976;5.660;2023-05-14T02:45:21;10.25;;;5.35;;
34900;SDS011;21112;51.976;5.660;2023-05-14T02:47:47;10.85;;;5.47;;
34900;SDS011;21112;51.976;5.660;2023-05-14T02:50:15;10.35;;;5.70;;
34900;SDS011;21112;51.976;5.660;2023-05-14T02:52:41;9.90;;;5.50;;
34900;SDS011;21112;51.976;5.660;2023-05-14T02:55:08;11.38;;;5.70;;
34900;SDS011;21112;51.976;5.660;2023-05-14T02:57:35;9.52;;;5.47;;
34900;SDS011;21112;51.976;5.660;2023-05-14T03:00:02;10.45;;;5.82;;
34900;SDS011;21112;51.976;5.660;2023-05-14T03:02:31;10.07;;;5.20;;
34900;SDS011;21112;51.976;5.660;2023-05-14T03:04:58;9.15;;;5.60;;
34900;SDS011;21112;51.976;5.660;2023-05-14T03:07:26;12.13;;;5.72;;
34900;SDS011;21112;51.976;5.660;2023-05-14T03:09:53;11.63;;;5.78;;
34900;SDS011;21112;51.976;5.660;2023-05-14T03:12:19;11.07;;;5.75;;
34900;SDS011;21112;51.976;5.660;2023-05-14T03:14:46;11.95;;;5.85;;
34900;SDS011;21112;51.976;5.660;2023-05-14T03:17:12;12.25;;;5.57;;
34900;SDS011;21112;51.976;5.660;2023-05-14T03:22:07;10.10;;;5.38;;
34900;SDS011;21112;51.976;5.660;2023-05-14T03:24:36;13.40;;;5.63;;
34900;SDS011;21112;51.976;5.660;2023-05-14T03:27:02;13.57;;;5.75;;
34900;SDS011;21112;51.976;5.660;2023-05-14T03:29:29;11.35;;;6.18;;
34900;SDS011;21112;51.976;5.660;2023-05-14T03:31:55;9.77;;;6.05;;
34900;SDS011;21112;51.976;5.660;2023-05-14T03:34:22;11.25;;;5.90;;
34900;SDS011;21112;51.976;5.660;2023-05-14T03:36:48;12.30;;;5.80;;
34900;SDS011;21112;51.976;5.660;2023-05-14T03:39:15;12.73;;;5.88;;
34900;SDS011;21112;51.976;5.660;2023-05-14T03:41:45;10.30;;;5.43;;
34900;SDS011;21112;51.976;5.660;2023-05-14T03:44:12;9.77;;;6.15;;
34900;SDS011;21112;51.976;5.660;2023-05-14T03:46:40;13.77;;;6.07;;
34900;SDS011;21112;51.976;5.660;2023-05-14T03:49:06;12.48;;;5.60;;
34900;SDS011;21112;51.976;5.660;2023-05-14T03:51:33;10.05;;;5.80;;
34900;SDS011;21112;51.976;5.660;2023-05-14T03:54:00;11.00;;;5.53;;
34900;SDS011;21112;51.976;5.660;2023-05-14T03:56:26;11.57;;;5.70;;
34900;SDS011;21112;51.976;5.660;2023-05-14T03:58:54;10.85;;;6.10;;
34900;SDS011;21112;51.976;5.660;2023-05-14T04:01:21;11.90;;;5.85;;
34900;SDS011;21112;51.976;5.660;2023-05-14T04:03:47;10.77;;;5.72;;
34900;SDS011;21112;51.976;5.660;2023-05-14T04:06:16;11.93;;;6.00;;
34900;SDS011;21112;51.976;5.660;2023-05-14T04:08:43;10.75;;;5.63;;
34900;SDS011;21112;51.976;5.660;2023-05-14T04:11:09;11.23;;;5.75;;
34900;SDS011;21112;51.976;5.660;2023-05-14T04:13:36;10.00;;;5.43;;
34900;SDS011;21112;51.976;5.660;2023-05-14T04:16:04;11.52;;;5.90;;
34900;SDS011;21112;51.976;5.660;2023-05-14T04:18:31;11.48;;;6.03;;
34900;SDS011;21112;51.976;5.660;2023-05-14T04:20:59;10.90;;;5.53;;
34900;SDS011;21112;51.976;5.660;2023-05-14T04:23:25;11.90;;;6.10;;
34900;SDS011;21112;51.976;5.660;2023-05-14T04:25:53;11.00;;;5.47;;
34900;SDS011;21112;51.976;5.660;2023-05-14T04:28:24;10.15;;;5.78;;
34900;SDS011;21112;51.976;5.660;2023-05-14T04:30:51;11.30;;;6.03;;
34900;SDS011;21112;51.976;5.660;2023-05-14T04:33:19;10.80;;;5.78;;
34900;SDS011;21112;51.976;5.660;2023-05-14T04:35:45;10.40;;;5.70;;
34900;SDS011;21112;51.976;5.660;2023-05-14T04:38:12;11.90;;;6.43;;
34900;SDS011;21112;51.976;5.660;2023-05-14T04:40:39;9.68;;;5.45;;
34900;SDS011;21112;51.976;5.660;2023-05-14T04:43:06;15.75;;;6.40;;
34900;SDS011;21112;51.976;5.660;2023-05-14T04:45:33;11.90;;;6.00;;
34900;SDS011;21112;51.976;5.660;2023-05-14T04:47:59;14.10;;;5.57;;
34900;SDS011;21112;51.976;5.660;2023-05-14T04:50:27;13.73;;;5.60;;
34900;SDS011;21112;51.976;5.660;2023-05-14T04:52:56;13.20;;;6.05;;
34900;SDS011;21112;51.976;5.660;2023-05-14T04:55:22;11.60;;;6.40;;
34900;SDS011;21112;51.976;5.660;2023-05-14T04:57:49;11.10;;;5.97;;
34900;SDS011;21112;51.976;5.660;2023-05-14T05:00:16;10.23;;;5.88;;
34900;SDS011;21112;51.976;5.660;2023-05-14T05:02:49;11.30;;;5.68;;
34900;SDS011;21112;51.976;5.660;2023-05-14T05:05:15;12.20;;;5.80;;
34900;SDS011;21112;51.976;5.660;2023-05-14T05:07:43;13.13;;;6.30;;
34900;SDS011;21112;51.976;5.660;2023-05-14T05:10:11;10.05;;;5.55;;
34900;SDS011;21112;51.976;5.660;2023-05-14T05:12:42;12.05;;;5.78;;
34900;SDS011;21112;51.976;5.660;2023-05-14T05:15:09;10.85;;;5.15;;
34900;SDS011;21112;51.976;5.660;2023-05-14T05:17:36;11.40;;;5.80;;
34900;SDS011;21112;51.976;5.660;2023-05-14T05:20:03;13.57;;;6.32;;
34900;SDS011;21112;51.976;5.660;2023-05-14T05:22:35;11.75;;;5.80;;
34900;SDS011;21112;51.976;5.660;2023-05-14T05:25:05;10.55;;;5.90;;
34900;SDS011;21112;51.976;5.660;2023-05-14T05:27:36;12.27;;;6.32;;
34900;SDS011;21112;51.976;5.660;2023-05-14T05:30:03;10.30;;;5.72;;
34900;SDS011;21112;51.976;5.660;2023-05-14T05:32:30;11.13;;;5.90;;
34900;SDS011;21112;51.976;5.660;2023-05-14T05:34:57;11.25;;;5.72;;
34900;SDS011;21112;51.976;5.660;2023-05-14T05:37:23;13.10;;;5.63;;
34900;SDS011;21112;51.976;5.660;2023-05-14T05:39:50;12.75;;;6.28;;
34900;SDS011;21112;51.976;5.660;2023-05-14T05:42:21;11.90;;;6.45;;
34900;SDS011;21112;51.976;5.660;2023-05-14T05:44:47;12.27;;;6.15;;
34900;SDS011;21112;51.976;5.660;2023-05-14T05:47:14;10.50;;;5.80;;
34900;SDS011;21112;51.976;5.660;2023-05-14T05:49:43;11.50;;;6.03;;
34900;SDS011;21112;51.976;5.660;2023-05-14T05:52:12;11.38;;;6.05;;
34900;SDS011;21112;51.976;5.660;2023-05-14T05:54:38;13.30;;;6.25;;
34900;SDS011;21112;51.976;5.660;2023-05-14T05:57:07;12.07;;;6.20;;
34900;SDS011;21112;51.976;5.660;2023-05-14T05:59:35;10.45;;;5.97;;
34900;SDS011;21112;51.976;5.660;2023-05-14T06:02:02;14.47;;;6.37;;
34900;SDS011;21112;51.976;5.660;2023-05-14T06:04:28;13.88;;;7.10;;
34900;SDS011;21112;51.976;5.660;2023-05-14T06:06:57;12.43;;;6.22;;
34900;SDS011;21112;51.976;5.660;2023-05-14T06:09:24;12.70;;;6.43;;
34900;SDS011;21112;51.976;5.660;2023-05-14T06:11:50;13.32;;;6.53;;
34900;SDS011;21112;51.976;5.660;2023-05-14T06:14:17;12.25;;;6.10;;
34900;SDS011;21112;51.976;5.660;2023-05-14T06:16:50;12.48;;;5.88;;
34900;SDS011;21112;51.976;5.660;2023-05-14T06:19:17;12.73;;;5.95;;
34900;SDS011;21112;51.976;5.660;2023-05-14T06:24:12;13.70;;;6.35;;
34900;SDS011;21112;51.976;5.660;2023-05-14T06:26:40;14.65;;;6.63;;
34900;SDS011;21112;51.976;5.660;2023-05-14T06:29:09;12.98;;;6.05;;
34900;SDS011;21112;51.976;5.660;2023-05-14T06:31:36;12.55;;;6.38;;
34900;SDS011;21112;51.976;5.660;2023-05-14T06:34:04;14.60;;;6.57;;
34900;SDS011;21112;51.976;5.660;2023-05-14T06:36:37;10.88;;;6.00;;
34900;SDS011;21112;51.976;5.660;2023-05-14T06:39:04;13.48;;;6.03;;
34900;SDS011;21112;51.976;5.660;2023-05-14T06:41:33;11.90;;;6.13;;
34900;SDS011;21112;51.976;5.660;2023-05-14T06:43:59;12.13;;;6.10;;
34900;SDS011;21112;51.976;5.660;2023-05-14T06:46:28;14.95;;;6.43;;
34900;SDS011;21112;51.976;5.660;2023-05-14T06:48:58;14.38;;;6.43;;
34900;SDS011;21112;51.976;5.660;2023-05-14T06:51:26;10.90;;;5.93;;
34900;SDS011;21112;51.976;5.660;2023-05-14T06:53:56;12.68;;;6.38;;
34900;SDS011;21112;51.976;5.660;2023-05-14T07:01:22;12.38;;;5.93;;
34900;SDS011;21112;51.976;5.660;2023-05-14T07:03:49;13.85;;;6.60;;
34900;SDS011;21112;51.976;5.660;2023-05-14T07:06:22;13.00;;;6.50;;
34900;SDS011;21112;51.976;5.660;2023-05-14T07:08:50;12.18;;;6.72;;
34900;SDS011;21112;51.976;5.660;2023-05-14T07:11:19;14.45;;;6.50;;
34900;SDS011;21112;51.976;5.660;2023-05-14T07:16:12;14.37;;;6.60;;
34900;SDS011;21112;51.976;5.660;2023-05-14T07:18:39;14.25;;;6.32;;
34900;SDS011;21112;51.976;5.660;2023-05-14T07:21:05;14.60;;;6.47;;
34900;SDS011;21112;51.976;5.660;2023-05-14T07:26:04;11.98;;;6.35;;
34900;SDS011;21112;51.976;5.660;2023-05-14T07:28:31;13.00;;;6.05;;
34900;SDS011;21112;51.976;5.660;2023-05-14T07:30:57;15.05;;;6.72;;
34900;SDS011;21112;51.976;5.660;2023-05-14T07:33:26;10.70;;;6.28;;
34900;SDS011;21112;51.976;5.660;2023-05-14T07:35:53;12.40;;;6.63;;
34900;SDS011;21112;51.976;5.660;2023-05-14T07:38:19;12.30;;;5.80;;
34900;SDS011;21112;51.976;5.660;2023-05-14T07:40:49;12.88;;;6.72;;
34900;SDS011;21112;51.976;5.660;2023-05-14T07:43:18;13.45;;;6.18;;
34900;SDS011;21112;51.976;5.660;2023-05-14T07:45:45;12.60;;;6.70;;
34900;SDS011;21112;51.976;5.660;2023-05-14T07:48:14;11.40;;;6.15;;
34900;SDS011;21112;51.976;5.660;2023-05-14T07:50:41;12.63;;;6.38;;
34900;SDS011;21112;51.976;5.660;2023-05-14T07:53:07;12.40;;;6.38;;
34900;SDS011;21112;51.976;5.660;2023-05-14T07:55:34;18.23;;;6.40;;
34900;SDS011;21112;51.976;5.660;2023-05-14T07:58:00;13.15;;;6.70;;
34900;SDS011;21112;51.976;5.660;2023-05-14T08:00:28;11.20;;;5.75;;
34900;SDS011;21112;51.976;5.660;2023-05-14T08:02:55;12.68;;;6.43;;
34900;SDS011;21112;51.976;5.660;2023-05-14T08:05:30;11.35;;;5.68;;
34900;SDS011;21112;51.976;5.660;2023-05-14T08:07:57;10.70;;;5.93;;
34900;SDS011;21112;51.976;5.660;2023-05-14T08:10:29;11.65;;;6.25;;
34900;SDS011;21112;51.976;5.660;2023-05-14T08:12:56;12.98;;;6.00;;
34900;SDS011;21112;51.976;5.660;2023-05-14T08:15:32;10.90;;;5.93;;
34900;SDS011;21112;51.976;5.660;2023-05-14T08:17:58;14.00;;;6.50;;
34900;SDS011;21112;51.976;5.660;2023-05-14T08:20:29;11.68;;;6.15;;
34900;SDS011;21112;51.976;5.660;2023-05-14T08:25:23;10.80;;;5.90;;
34900;SDS011;21112;51.976;5.660;2023-05-14T08:27:51;14.57;;;6.72;;
34900;SDS011;21112;51.976;5.660;2023-05-14T08:30:18;14.73;;;6.72;;
34900;SDS011;21112;51.976;5.660;2023-05-14T08:32:53;13.43;;;6.05;;
34900;SDS011;21112;51.976;5.660;2023-05-14T08:35:23;13.57;;;7.00;;
34900;SDS011;21112;51.976;5.660;2023-05-14T08:37:54;11.85;;;6.20;;
34900;SDS011;21112;51.976;5.660;2023-05-14T08:40:22;12.20;;;5.90;;
34900;SDS011;21112;51.976;5.660;2023-05-14T08:42:51;12.65;;;6.63;;
34900;SDS011;21112;51.976;5.660;2023-05-14T08:45:18;11.43;;;5.93;;
34900;SDS011;21112;51.976;5.660;2023-05-14T08:47:48;12.05;;;6.68;;
34900;SDS011;21112;51.976;5.660;2023-05-14T08:50:17;13.52;;;7.05;;
34900;SDS011;21112;51.976;5.660;2023-05-14T08:52:46;13.18;;;6.40;;
34900;SDS011;21112;51.976;5.660;2023-05-14T08:55:16;11.93;;;6.63;;
34900;SDS011;21112;51.976;5.660;2023-05-14T08:57:49;11.25;;;6.40;;
34900;SDS011;21112;51.976;5.660;2023-05-14T09:00:15;12.70;;;6.72;;
34900;SDS011;21112;51.976;5.660;2023-05-14T09:02:43;12.10;;;6.53;;
34900;SDS011;21112;51.976;5.660;2023-05-14T09:05:10;11.63;;;6.03;;
34900;SDS011;21112;51.976;5.660;2023-05-14T09:07:41;13.20;;;6.68;;
34900;SDS011;21112;51.976;5.660;2023-05-14T09:10:14;13.32;;;6.50;;
34900;SDS011;21112;51.976;5.660;2023-05-14T09:12:41;12.07;;;6.90;;
34900;SDS011;21112;51.976;5.660;2023-05-14T09:15:09;11.32;;;6.32;;
34900;SDS011;21112;51.976;5.660;2023-05-14T09:17:39;13.80;;;6.68;;
34900;SDS011;21112;51.976;5.660;2023-05-14T09:20:08;12.45;;;6.88;;
34900;SDS011;21112;51.976;5.660;2023-05-14T09:22:38;11.77;;;6.60;;
34900;SDS011;21112;51.976;5.660;2023-05-14T09:25:09;15.63;;;6.72;;
34900;SDS011;21112;51.976;5.660;2023-05-14T09:27:38;10.85;;;6.38;;
34900;SDS011;21112;51.976;5.660;2023-05-14T09:30:13;12.90;;;6.82;;
34900;SDS011;21112;51.976;5.660;2023-05-14T09:32:45;13.00;;;6.72;;
34900;SDS011;21112;51.976;5.660;2023-05-14T09:35:16;11.98;;;6.38;;
34900;SDS011;21112;51.976;5.660;2023-05-14T09:37:50;10.75;;;6.60;;
34900;SDS011;21112;51.976;5.660;2023-05-14T09:40:21;11.40;;;5.60;;
34900;SDS011;21112;51.976;5.660;2023-05-14T09:42:51;12.15;;;6.28;;
34900;SDS011;21112;51.976;5.660;2023-05-14T09:45:23;11.48;;;6.25;;
34900;SDS011;21112;51.976;5.660;2023-05-14T09:47:54;16.80;;;6.53;;
34900;SDS011;21112;51.976;5.660;2023-05-14T09:50:27;13.43;;;6.40;;
34900;SDS011;21112;51.976;5.660;2023-05-14T09:52:54;12.55;;;6.20;;
34900;SDS011;21112;51.976;5.660;2023-05-14T09:55:24;15.57;;;6.97;;
34900;SDS011;21112;51.976;5.660;2023-05-14T09:57:51;11.80;;;6.00;;
34900;SDS011;21112;51.976;5.660;2023-05-14T10:00:20;13.32;;;6.03;;
34900;SDS011;21112;51.976;5.660;2023-05-14T10:02:50;10.15;;;5.95;;
34900;SDS011;21112;51.976;5.660;2023-05-14T10:05:18;10.90;;;5.75;;
34900;SDS011;21112;51.976;5.660;2023-05-14T10:08:24;11.27;;;5.63;;
34900;SDS011;21112;51.976;5.660;2023-05-14T10:10:40;13.20;;;5.97;;
34900;SDS011;21112;51.976;5.660;2023-05-14T10:13:11;11.20;;;6.20;;
34900;SDS011;21112;51.976;5.660;2023-05-14T10:15:42;10.77;;;6.20;;
34900;SDS011;21112;51.976;5.660;2023-05-14T10:18:16;12.23;;;6.38;;
34900;SDS011;21112;51.976;5.660;2023-05-14T10:20:45;12.13;;;5.85;;
34900;SDS011;21112;51.976;5.660;2023-05-14T10:23:17;12.35;;;6.05;;
34900;SDS011;21112;51.976;5.660;2023-05-14T10:25:46;11.23;;;6.30;;
34900;SDS011;21112;51.976;5.660;2023-05-14T10:28:13;16.30;;;6.70;;
34900;SDS011;21112;51.976;5.660;2023-05-14T10:30:42;12.43;;;6.30;;
34900;SDS011;21112;51.976;5.660;2023-05-14T10:33:26;9.82;;;5.97;;
34900;SDS011;21112;51.976;5.660;2023-05-14T10:36:12;11.57;;;5.50;;
34900;SDS011;21112;51.976;5.660;2023-05-14T10:38:44;10.50;;;5.63;;
34900;SDS011;21112;51.976;5.660;2023-05-14T10:41:23;12.15;;;6.07;;
34900;SDS011;21112;51.976;5.660;2023-05-14T10:43:55;11.43;;;5.88;;
34900;SDS011;21112;51.976;5.660;2023-05-14T10:46:25;13.45;;;6.53;;
34900;SDS011;21112;51.976;5.660;2023-05-14T10:48:53;10.30;;;6.07;;
34900;SDS011;21112;51.976;5.660;2023-05-14T10:51:20;11.48;;;5.82;;
34900;SDS011;21112;51.976;5.660;2023-05-14T10:53:55;8.63;;;5.00;;
34900;SDS011;21112;51.976;5.660;2023-05-14T10:56:28;12.57;;;5.43;;
34900;SDS011;21112;51.976;5.660;2023-05-14T10:58:56;11.73;;;5.97;;
34900;SDS011;21112;51.976;5.660;2023-05-14T11:01:23;11.75;;;5.38;;
34900;SDS011;21112;51.976;5.660;2023-05-14T11:03:50;9.40;;;5.22;;
34900;SDS011;21112;51.976;5.660;2023-05-14T11:06:19;12.15;;;6.78;;
34900;SDS011;21112;51.976;5.660;2023-05-14T11:08:46;14.48;;;6.78;;
34900;SDS011;21112;51.976;5.660;2023-05-14T11:11:15;15.38;;;6.85;;
34900;SDS011;21112;51.976;5.660;2023-05-14T11:13:44;12.68;;;6.47;;
34900;SDS011;21112;51.976;5.660;2023-05-14T11:16:13;11.60;;;5.80;;
34900;SDS011;21112;51.976;5.660;2023-05-14T11:18:42;9.88;;;5.20;;
34900;SDS011;21112;51.976;5.660;2023-05-14T11:21:17;11.60;;;5.85;;
34900;SDS011;21112;51.976;5.660;2023-05-14T11:23:45;9.75;;;5.68;;
34900;SDS011;21112;51.976;5.660;2023-05-14T11:26:12;11.73;;;5.75;;
34900;SDS011;21112;51.976;5.660;2023-05-14T11:28:42;10.35;;;5.53;;
34900;SDS011;21112;51.976;5.660;2023-05-14T11:31:14;9.75;;;5.10;;
34900;SDS011;21112;51.976;5.660;2023-05-14T11:33:43;9.50;;;4.85;;
34900;SDS011;21112;51.976;5.660;2023-05-14T11:36:15;9.32;;;4.95;;
34900;SDS011;21112;51.976;5.660;2023-05-14T11:38:47;12.13;;;5.40;;
34900;SDS011;21112;51.976;5.660;2023-05-14T11:41:15;10.85;;;4.55;;
34900;SDS011;21112;51.976;5.660;2023-05-14T11:43:52;9.68;;;5.15;;
34900;SDS011;21112;51.976;5.660;2023-05-14T11:46:21;8.27;;;5.00;;
34900;SDS011;21112;51.976;5.660;2023-05-14T11:48:50;8.57;;;4.78;;
34900;SDS011;21112;51.976;5.660;2023-05-14T11:51:16;8.52;;;4.45;;
34900;SDS011;21112;51.976;5.660;2023-05-14T11:53:43;8.70;;;4.35;;
34900;SDS011;21112;51.976;5.660;2023-05-14T11:56:10;8.60;;;4.80;;
34900;SDS011;21112;51.976;5.660;2023-05-14T11:58:37;9.13;;;4.50;;
34900;SDS011;21112;51.976;5.660;2023-05-14T12:01:06;10.07;;;4.95;;
34900;SDS011;21112;51.976;5.660;2023-05-14T12:03:47;11.48;;;4.60;;
34900;SDS011;21112;51.976;5.660;2023-05-14T12:06:13;9.73;;;4.65;;
34900;SDS011;21112;51.976;5.660;2023-05-14T12:08:40;8.85;;;4.93;;
34900;SDS011;21112;51.976;5.660;2023-05-14T12:11:09;8.43;;;4.38;;
34900;SDS011;21112;51.976;5.660;2023-05-14T12:13:35;10.55;;;4.75;;
34900;SDS011;21112;51.976;5.660;2023-05-14T12:16:02;7.97;;;4.45;;
34900;SDS011;21112;51.976;5.660;2023-05-14T12:18:31;7.47;;;4.38;;
34900;SDS011;21112;51.976;5.660;2023-05-14T12:21:03;7.03;;;4.35;;
34900;SDS011;21112;51.976;5.660;2023-05-14T12:23:31;11.82;;;4.38;;
34900;SDS011;21112;51.976;5.660;2023-05-14T12:26:01;9.32;;;4.60;;
34900;SDS011;21112;51.976;5.660;2023-05-14T12:28:30;7.00;;;4.40;;
34900;SDS011;21112;51.976;5.660;2023-05-14T12:30:56;8.35;;;4.00;;
34900;SDS011;21112;51.976;5.660;2023-05-14T12:33:24;10.55;;;4.05;;
34900;SDS011;21112;51.976;5.660;2023-05-14T12:35:51;10.63;;;4.38;;
34900;SDS011;21112;51.976;5.660;2023-05-14T12:38:23;9.20;;;3.95;;
34900;SDS011;21112;51.976;5.660;2023-05-14T12:40:49;8.25;;;4.30;;
34900;SDS011;21112;51.976;5.660;2023-05-14T12:43:19;7.05;;;4.30;;
34900;SDS011;21112;51.976;5.660;2023-05-14T12:45:48;9.18;;;4.20;;
34900;SDS011;21112;51.976;5.660;2023-05-14T12:48:14;8.48;;;4.18;;
34900;SDS011;21112;51.976;5.660;2023-05-14T12:50:41;8.27;;;4.47;;
34900;SDS011;21112;51.976;5.660;2023-05-14T12:53:07;8.35;;;3.80;;
34900;SDS011;21112;51.976;5.660;2023-05-14T12:55:38;6.85;;;3.67;;
34900;SDS011;21112;51.976;5.660;2023-05-14T12:58:04;8.10;;;3.90;;
34900;SDS011;21112;51.976;5.660;2023-05-14T13:00:31;9.07;;;3.70;;
34900;SDS011;21112;51.976;5.660;2023-05-14T13:02:58;7.22;;;4.00;;
34900;SDS011;21112;51.976;5.660;2023-05-14T13:05:26;7.60;;;3.78;;
34900;SDS011;21112;51.976;5.660;2023-05-14T13:07:57;9.10;;;3.90;;
34900;SDS011;21112;51.976;5.660;2023-05-14T13:10:24;11.32;;;3.72;;
34900;SDS011;21112;51.976;5.660;2023-05-14T13:12:52;8.82;;;3.47;;
34900;SDS011;21112;51.976;5.660;2023-05-14T13:15:23;7.78;;;3.92;;
34900;SDS011;21112;51.976;5.660;2023-05-14T13:17:50;9.18;;;3.90;;
34900;SDS011;21112;51.976;5.660;2023-05-14T13:20:19;6.55;;;3.60;;
34900;SDS011;21112;51.976;5.660;2023-05-14T13:25:17;7.18;;;3.45;;
34900;SDS011;21112;51.976;5.660;2023-05-14T13:27:44;6.28;;;3.28;;
34900;SDS011;21112;51.976;5.660;2023-05-14T13:30:17;6.18;;;3.30;;
34900;SDS011;21112;51.976;5.660;2023-05-14T13:32:44;8.55;;;3.83;;
34900;SDS011;21112;51.976;5.660;2023-05-14T13:35:11;6.65;;;3.25;;
34900;SDS011;21112;51.976;5.660;2023-05-14T13:37:38;10.40;;;3.97;;
34900;SDS011;21112;51.976;5.660;2023-05-14T13:40:05;6.93;;;3.80;;
34900;SDS011;21112;51.976;5.660;2023-05-14T13:42:32;10.97;;;3.97;;
34900;SDS011;21112;51.976;5.660;2023-05-14T13:44:59;6.28;;;3.35;;
34900;SDS011;21112;51.976;5.660;2023-05-14T13:47:31;7.05;;;3.40;;
34900;SDS011;21112;51.976;5.660;2023-05-14T13:50:00;6.55;;;3.20;;
34900;SDS011;21112;51.976;5.660;2023-05-14T13:52:29;7.70;;;2.92;;
34900;SDS011;21112;51.976;5.660;2023-05-14T13:54:59;9.05;;;3.45;;
34900;SDS011;21112;51.976;5.660;2023-05-14T13:57:35;5.90;;;2.92;;
34900;SDS011;21112;51.976;5.660;2023-05-14T14:00:04;7.75;;;3.58;;
34900;SDS011;21112;51.976;5.660;2023-05-14T14:02:33;7.20;;;3.30;;
34900;SDS011;21112;51.976;5.660;2023-05-14T14:05:01;6.07;;;3.20;;
34900;SDS011;21112;51.976;5.660;2023-05-14T14:07:29;6.45;;;3.13;;
34900;SDS011;21112;51.976;5.660;2023-05-14T14:09:56;10.68;;;3.33;;
34900;SDS011;21112;51.976;5.660;2023-05-14T14:12:29;6.95;;;2.95;;
34900;SDS011;21112;51.976;5.660;2023-05-14T14:14:56;9.10;;;3.17;;
34900;SDS011;21112;51.976;5.660;2023-05-14T14:17:23;7.10;;;3.30;;
34900;SDS011;21112;51.976;5.660;2023-05-14T14:19:54;7.50;;;3.47;;
34900;SDS011;21112;51.976;5.660;2023-05-14T14:22:21;7.18;;;3.10;;
34900;SDS011;21112;51.976;5.660;2023-05-14T14:24:47;7.88;;;3.10;;
34900;SDS011;21112;51.976;5.660;2023-05-14T14:27:15;6.97;;;3.05;;
34900;SDS011;21112;51.976;5.660;2023-05-14T14:29:42;6.32;;;2.80;;
34900;SDS011;21112;51.976;5.660;2023-05-14T14:32:08;4.90;;;2.75;;
34900;SDS011;21112;51.976;5.660;2023-05-14T14:34:35;7.32;;;2.90;;
34900;SDS011;21112;51.976;5.660;2023-05-14T14:37:03;7.80;;;3.42;;
34900;SDS011;21112;51.976;5.660;2023-05-14T14:39:30;7.78;;;3.30;;
34900;SDS011;21112;51.976;5.660;2023-05-14T14:41:57;5.43;;;2.70;;
34900;SDS011;21112;51.976;5.660;2023-05-14T14:44:26;5.13;;;2.88;;
34900;SDS011;21112;51.976;5.660;2023-05-14T14:46:53;4.50;;;2.55;;
34900;SDS011;21112;51.976;5.660;2023-05-14T14:49:21;6.47;;;3.22;;
34900;SDS011;21112;51.976;5.660;2023-05-14T14:51:48;6.57;;;3.30;;
34900;SDS011;21112;51.976;5.660;2023-05-14T14:54:16;6.78;;;3.20;;
34900;SDS011;21112;51.976;5.660;2023-05-14T14:56:45;7.68;;;3.10;;
34900;SDS011;21112;51.976;5.660;2023-05-14T14:59:13;5.93;;;2.65;;
34900;SDS011;21112;51.976;5.660;2023-05-14T15:01:39;6.35;;;3.00;;
34900;SDS011;21112;51.976;5.660;2023-05-14T15:04:10;6.00;;;2.70;;
34900;SDS011;21112;51.976;5.660;2023-05-14T15:06:37;6.10;;;3.13;;
34900;SDS011;21112;51.976;5.660;2023-05-14T15:09:03;5.95;;;2.90;;